createdAt,value
2018-08-04T00:00:27.078Z,22.92
2018-08-04T00:01:27.086Z,22.88
2018-08-04T00:02:26.819Z,22.85
2018-08-04T00:03:27.075Z,22.86
2018-08-04T00:04:27.077Z,22.85
2018-08-04T00:05:27.071Z,22.88
2018-08-04T00:06:27.067Z,22.82
2018-08-04T00:07:27.067Z,22.77
2018-08-04T00:08:27.064Z,22.75
2018-08-04T00:09:27.063Z,22.73
2018-08-04T00:10:27.061Z,22.73
2018-08-04T00:11:26.810Z,22.75
2018-08-04T00:12:27.059Z,22.67
2018-08-04T00:13:27.069Z,22.64
2018-08-04T00:14:26.808Z,22.67
2018-08-04T00:15:27.140Z,22.67
2018-08-04T00:16:27.054Z,22.51
2018-08-04T00:17:27.060Z,22.49
2018-08-04T00:18:27.049Z,22.54
2018-08-04T00:19:27.056Z,22.58
2018-08-04T00:20:27.053Z,22.47
2018-08-04T00:21:27.061Z,22.51
2018-08-04T00:22:26.792Z,22.49
2018-08-04T00:23:27.045Z,22.45
2018-08-04T00:24:27.040Z,22.45
2018-08-04T00:25:27.039Z,22.46
2018-08-04T00:26:27.037Z,22.46
2018-08-04T00:27:27.047Z,22.36
2018-08-04T00:28:27.034Z,22.31
2018-08-04T00:29:26.529Z,22.33
2018-08-04T00:30:27.030Z,22.36
2018-08-04T00:31:27.033Z,22.3
2018-08-04T00:32:27.037Z,22.27
2018-08-04T00:33:27.027Z,22.25
2018-08-04T00:34:27.029Z,22.22
2018-08-04T00:35:26.779Z,22.22
2018-08-04T00:36:27.031Z,22.22
2018-08-04T00:37:27.018Z,22.15
2018-08-04T00:38:27.017Z,22.12
2018-08-04T00:39:27.019Z,22.14
2018-08-04T00:40:27.018Z,22.09
2018-08-04T00:41:26.763Z,22.1
2018-08-04T00:42:27.015Z,22.1
2018-08-04T00:43:27.017Z,22.07
2018-08-04T00:44:27.033Z,22.12
2018-08-04T00:45:27.008Z,22.02
2018-08-04T00:46:27.005Z,22.06
2018-08-04T00:47:27.001Z,22.03
2018-08-04T00:48:26.747Z,22.06
2018-08-04T00:49:26.998Z,22.05
2018-08-04T00:50:27.001Z,22.05
2018-08-04T00:51:27.010Z,21.99
2018-08-04T00:52:26.740Z,22
2018-08-04T00:53:26.992Z,22.07
2018-08-04T00:54:26.991Z,22.05
2018-08-04T00:55:26.997Z,21.96
2018-08-04T00:56:26.993Z,21.94
2018-08-04T00:57:26.983Z,21.99
2018-08-04T00:58:26.990Z,21.94
2018-08-04T00:59:26.985Z,21.91
2018-08-04T01:00:26.724Z,21.94
2018-08-04T01:01:26.978Z,21.91
2018-08-04T01:02:26.975Z,21.92
2018-08-04T01:03:26.724Z,21.86
2018-08-04T01:04:26.719Z,21.91
2018-08-04T01:05:26.967Z,21.96
2018-08-04T01:06:26.973Z,21.92
2018-08-04T01:07:26.969Z,21.92
2018-08-04T01:08:26.968Z,21.84
2018-08-04T01:09:26.707Z,21.86
2018-08-04T01:10:26.705Z,21.77
2018-08-04T01:11:26.954Z,21.77
2018-08-04T01:12:26.954Z,21.91
2018-08-04T01:13:26.961Z,21.82
2018-08-04T01:14:26.951Z,21.84
2018-08-04T01:15:26.947Z,21.84
2018-08-04T01:16:26.953Z,21.84
2018-08-04T01:17:26.942Z,21.82
2018-08-04T01:18:26.946Z,21.77
2018-08-04T01:19:26.940Z,21.83
2018-08-04T01:20:26.940Z,21.79
2018-08-04T01:21:26.934Z,21.77
2018-08-04T01:22:26.933Z,21.86
2018-08-04T01:23:26.932Z,21.8
2018-08-04T01:24:26.676Z,21.8
2018-08-04T01:25:26.675Z,21.88
2018-08-04T01:26:26.673Z,21.84
2018-08-04T01:27:28.203Z,21.86
2018-08-04T01:28:26.667Z,21.82
2018-08-04T01:29:26.670Z,21.83
2018-08-04T01:30:26.668Z,21.75
2018-08-04T01:31:26.925Z,21.8
2018-08-04T01:32:26.913Z,21.72
2018-08-04T01:33:26.955Z,21.74
2018-08-04T01:34:26.909Z,21.64
2018-08-04T01:35:26.654Z,21.69
2018-08-04T01:36:26.920Z,21.64
2018-08-04T01:37:27.108Z,21.64
2018-08-04T01:38:26.900Z,21.74
2018-08-04T01:39:27.104Z,21.62
2018-08-04T01:40:26.649Z,21.65
2018-08-04T01:41:26.900Z,21.67
2018-08-04T01:42:28.169Z,21.62
2018-08-04T01:43:26.891Z,21.62
2018-08-04T01:44:26.894Z,21.64
2018-08-04T01:45:26.886Z,21.58
2018-08-04T01:47:26.880Z,21.59
2018-08-04T01:50:27.125Z,21.47
2018-08-04T01:51:26.882Z,21.49
2018-08-04T01:52:26.619Z,21.47
2018-08-04T01:53:26.866Z,21.44
2018-08-04T01:54:26.868Z,21.43
2018-08-04T01:55:26.872Z,21.43
2018-08-04T01:56:26.861Z,21.44
2018-08-04T01:58:27.062Z,21.35
2018-08-04T01:59:26.857Z,21.38
2018-08-04T02:00:26.854Z,21.35
2018-08-04T02:02:26.847Z,21.34
2018-08-04T02:03:26.596Z,21.31
2018-08-04T02:06:26.841Z,21.38
2018-08-04T02:08:26.839Z,21.37
2018-08-04T02:09:26.833Z,21.35
2018-08-04T02:10:26.581Z,21.31
2018-08-04T02:11:26.827Z,21.35
2018-08-04T02:12:26.825Z,21.34
2018-08-04T02:13:26.823Z,21.28
2018-08-04T02:14:26.573Z,21.24
2018-08-04T02:15:26.819Z,21.32
2018-08-04T02:16:26.817Z,21.34
2018-08-04T02:17:26.814Z,21.25
2018-08-04T02:18:26.820Z,21.17
2018-08-04T02:19:26.560Z,21.14
2018-08-04T02:20:26.555Z,21.21
2018-08-04T02:21:26.814Z,21.13
2018-08-04T02:22:26.804Z,21.19
2018-08-04T02:23:26.549Z,21.21
2018-08-04T02:24:26.295Z,21.21
2018-08-04T02:25:26.546Z,21.27
2018-08-04T02:26:26.792Z,21.21
2018-08-04T02:27:26.792Z,21.19
2018-08-04T02:28:26.792Z,21.21
2018-08-04T02:29:26.785Z,21.21
2018-08-04T02:30:26.788Z,21.22
2018-08-04T02:31:26.790Z,21.17
2018-08-04T02:32:26.791Z,21.19
2018-08-04T02:33:26.778Z,21.25
2018-08-04T02:34:26.550Z,21.16
2018-08-04T02:35:26.522Z,21.14
2018-08-04T02:36:26.520Z,21.14
2018-08-04T02:37:26.770Z,21.13
2018-08-04T02:38:26.512Z,21.16
2018-08-04T02:39:26.515Z,21.16
2018-08-04T02:40:26.780Z,21.14
2018-08-04T02:41:26.767Z,21.14
2018-08-04T02:42:26.775Z,21.1
2018-08-04T02:43:27.746Z,21.19
2018-08-04T02:46:26.752Z,21.09
2018-08-04T02:47:26.749Z,21.07
2018-08-04T02:48:26.747Z,21.06
2018-08-04T02:49:26.748Z,21.09
2018-08-04T02:50:26.738Z,21.09
2018-08-04T02:51:26.739Z,21.03
2018-08-04T02:52:26.985Z,21.07
2018-08-04T02:54:26.726Z,21.03
2018-08-04T02:55:26.725Z,20.97
2018-08-04T02:56:26.723Z,20.98
2018-08-04T02:57:26.722Z,20.98
2018-08-04T02:58:26.465Z,21.07
2018-08-04T02:59:26.462Z,20.97
2018-08-04T03:00:26.460Z,20.99
2018-08-04T03:01:26.463Z,20.97
2018-08-04T03:02:26.716Z,20.97
2018-08-04T03:03:26.711Z,20.97
2018-08-04T03:04:26.450Z,20.99
2018-08-04T03:05:26.703Z,20.94
2018-08-04T03:06:26.705Z,20.91
2018-08-04T03:07:26.693Z,20.88
2018-08-04T03:08:26.934Z,20.88
2018-08-04T03:09:26.448Z,20.99
2018-08-04T03:10:26.693Z,20.87
2018-08-04T03:11:26.448Z,20.94
2018-08-04T03:12:26.693Z,20.88
2018-08-04T03:13:26.434Z,20.88
2018-08-04T03:14:26.676Z,20.91
2018-08-04T03:15:26.676Z,20.79
2018-08-04T03:16:26.675Z,20.77
2018-08-04T03:17:26.674Z,20.82
2018-08-04T03:18:29.224Z,20.85
2018-08-04T03:19:26.668Z,20.8
2018-08-04T03:20:26.666Z,20.82
2018-08-04T03:21:26.661Z,20.8
2018-08-04T03:22:27.935Z,20.85
2018-08-04T03:23:26.660Z,20.87
2018-08-04T03:24:26.655Z,20.8
2018-08-04T03:25:26.652Z,20.77
2018-08-04T03:26:26.653Z,20.74
2018-08-04T03:27:26.648Z,20.84
2018-08-04T03:28:26.390Z,20.77
2018-08-04T03:29:26.395Z,20.73
2018-08-04T03:30:26.679Z,20.73
2018-08-04T03:31:26.643Z,20.82
2018-08-04T03:32:26.631Z,20.69
2018-08-04T03:33:26.628Z,20.73
2018-08-04T03:34:26.624Z,20.77
2018-08-04T03:35:26.622Z,20.87
2018-08-04T03:36:26.368Z,20.76
2018-08-04T03:37:26.368Z,20.7
2018-08-04T03:40:26.609Z,20.69
2018-08-04T03:41:26.358Z,20.74
2018-08-04T03:42:26.604Z,20.84
2018-08-04T03:43:26.354Z,20.79
2018-08-04T03:44:26.599Z,20.73
2018-08-04T03:46:26.593Z,20.8
2018-08-04T03:47:26.590Z,20.85
2018-08-04T03:48:26.591Z,20.79
2018-08-04T03:52:26.580Z,20.95
2018-08-04T03:53:26.074Z,20.97
2018-08-04T03:54:26.585Z,20.97
2018-08-04T03:55:26.575Z,21.04
2018-08-04T03:56:26.319Z,21.07
2018-08-04T03:57:26.818Z,21.13
2018-08-04T03:58:26.312Z,21.12
2018-08-04T03:59:26.309Z,21.09
2018-08-04T04:00:26.307Z,21.16
2018-08-04T04:01:26.309Z,21.17
2018-08-04T04:02:26.302Z,21.14
2018-08-04T04:03:26.563Z,21.22
2018-08-04T04:04:26.549Z,21.21
2018-08-04T04:05:26.294Z,21.32
2018-08-04T04:06:26.544Z,21.32
2018-08-04T04:07:26.542Z,21.34
2018-08-04T04:08:26.540Z,21.35
2018-08-04T04:09:26.536Z,21.47
2018-08-04T04:10:26.536Z,21.46
2018-08-04T04:11:26.289Z,21.44
2018-08-04T04:12:26.533Z,21.59
2018-08-04T04:13:26.531Z,21.62
2018-08-04T04:14:26.529Z,21.69
2018-08-04T04:15:26.525Z,21.84
2018-08-04T04:16:26.526Z,21.96
2018-08-04T04:17:26.521Z,22
2018-08-04T04:18:26.518Z,22.15
2018-08-04T04:19:26.520Z,22.22
2018-08-04T04:20:26.517Z,22.43
2018-08-04T04:21:26.266Z,22.47
2018-08-04T04:22:26.261Z,22.68
2018-08-04T04:23:26.259Z,22.86
2018-08-04T04:24:26.517Z,22.94
2018-08-04T04:25:26.510Z,23.2
2018-08-04T04:26:26.506Z,23.36
2018-08-04T04:27:26.513Z,23.55
2018-08-04T04:28:26.756Z,23.79
2018-08-04T04:29:26.261Z,23.87
2018-08-04T04:30:26.503Z,24.13
2018-08-04T04:31:26.501Z,24.18
2018-08-04T04:32:26.502Z,24.4
2018-08-04T04:33:26.507Z,24.47
2018-08-04T04:34:26.501Z,24.64
2018-08-04T04:35:26.501Z,24.95
2018-08-04T04:36:26.506Z,25.08
2018-08-04T04:37:26.503Z,25.23
2018-08-04T04:38:26.505Z,25.46
2018-08-04T04:39:26.255Z,25.65
2018-08-04T04:40:26.252Z,25.75
2018-08-04T04:41:26.004Z,25.87
2018-08-04T04:42:26.258Z,25.94
2018-08-04T04:43:26.513Z,26.02
2018-08-04T04:44:26.520Z,26.3
2018-08-04T04:45:26.513Z,26.48
2018-08-04T04:46:26.515Z,26.62
2018-08-04T04:47:26.527Z,26.84
2018-08-04T04:48:26.037Z,26.92
2018-08-04T04:49:26.270Z,27.07
2018-08-04T04:50:26.273Z,27.13
2018-08-04T04:51:26.526Z,27.29
2018-08-04T04:52:26.527Z,27.46
2018-08-04T04:53:26.282Z,27.59
2018-08-04T04:54:26.285Z,27.72
2018-08-04T04:55:26.658Z,27.84
2018-08-04T04:56:26.302Z,28.06
2018-08-04T04:57:26.546Z,28.25
2018-08-04T04:58:26.554Z,28.48
2018-08-04T04:59:26.804Z,28.58
2018-08-04T05:00:26.305Z,28.7
2018-08-04T05:01:26.564Z,28.93
2018-08-04T05:02:26.568Z,28.95
2018-08-04T05:03:26.569Z,29.09
2018-08-04T05:04:26.328Z,29.18
2018-08-04T05:05:26.331Z,29.27
2018-08-04T05:06:26.331Z,29.33
2018-08-04T05:07:26.589Z,29.49
2018-08-04T05:08:26.594Z,29.74
2018-08-04T05:09:26.601Z,29.8
2018-08-04T05:10:26.606Z,29.92
2018-08-04T05:11:26.612Z,30.07
2018-08-04T05:12:26.628Z,30.16
2018-08-04T05:13:26.813Z,30.38
2018-08-04T05:14:26.375Z,30.46
2018-08-04T05:15:26.634Z,30.65
2018-08-04T05:16:26.387Z,30.77
2018-08-04T05:17:26.649Z,30.91
2018-08-04T05:18:26.654Z,31.02
2018-08-04T05:19:26.406Z,31.1
2018-08-04T05:20:26.663Z,31.19
2018-08-04T05:21:26.757Z,31.31
2018-08-04T05:22:26.697Z,31.34
2018-08-04T05:23:26.687Z,31.5
2018-08-04T05:24:26.709Z,31.65
2018-08-04T05:25:26.697Z,31.88
2018-08-04T05:26:26.457Z,31.99
2018-08-04T05:27:26.718Z,32.13
2018-08-04T05:28:26.722Z,32.4
2018-08-04T05:29:26.477Z,32.57
2018-08-04T05:30:26.742Z,32.81
2018-08-04T05:31:26.749Z,33
2018-08-04T05:32:26.754Z,33.16
2018-08-04T05:33:26.766Z,33.38
2018-08-04T05:34:26.770Z,33.59
2018-08-04T05:35:26.781Z,33.82
2018-08-04T05:36:26.793Z,33.87
2018-08-04T05:37:26.952Z,34.13
2018-08-04T05:38:26.551Z,34.34
2018-08-04T05:39:26.814Z,34.46
2018-08-04T05:40:26.830Z,34.69
2018-08-04T05:41:26.833Z,34.81
2018-08-04T05:42:26.838Z,34.92
2018-08-04T05:43:26.862Z,35.1
2018-08-04T05:44:26.858Z,35.15
2018-08-04T05:45:26.867Z,35.37
2018-08-04T05:46:39.607Z,35.48
2018-08-04T05:47:26.637Z,35.63
2018-08-04T05:48:26.896Z,35.66
2018-08-04T05:49:26.654Z,35.72
2018-08-04T05:50:26.919Z,35.87
2018-08-04T05:51:26.953Z,35.93
2018-08-04T05:52:26.939Z,36.01
2018-08-04T05:53:26.694Z,36.23
2018-08-04T05:54:26.453Z,36.32
2018-08-04T05:55:26.966Z,36.34
2018-08-04T05:56:26.978Z,36.43
2018-08-04T05:57:26.743Z,36.46
2018-08-04T05:58:27.003Z,36.59
2018-08-04T05:59:27.009Z,36.69
2018-08-04T06:00:27.029Z,36.83
2018-08-04T06:01:27.055Z,36.78
2018-08-04T06:02:27.304Z,36.98
2018-08-04T06:03:26.907Z,37.13
2018-08-04T06:04:27.079Z,37.27
2018-08-04T06:05:26.823Z,37.32
2018-08-04T06:06:27.088Z,37.55
2018-08-04T06:07:39.832Z,37.56
2018-08-04T06:08:27.110Z,37.67
2018-08-04T06:09:26.876Z,37.79
2018-08-04T06:10:27.130Z,37.79
2018-08-04T06:11:27.141Z,37.93
2018-08-04T06:12:27.157Z,38.01
2018-08-04T06:13:26.924Z,38.07
2018-08-04T06:14:26.979Z,38.13
2018-08-04T06:15:26.941Z,38.16
2018-08-04T06:16:27.205Z,38.22
2018-08-04T06:17:27.212Z,38.34
2018-08-04T06:18:26.972Z,38.38
2018-08-04T06:19:27.237Z,38.52
2018-08-04T06:20:27.250Z,38.56
2018-08-04T06:21:27.261Z,38.71
2018-08-04T06:22:27.280Z,38.68
2018-08-04T06:23:27.289Z,38.78
2018-08-04T06:24:27.319Z,38.83
2018-08-04T06:25:27.064Z,38.86
2018-08-04T06:26:27.329Z,38.93
2018-08-04T06:27:27.340Z,39.03
2018-08-04T06:28:27.525Z,39.11
2018-08-04T06:29:27.117Z,39.18
2018-08-04T06:30:27.445Z,39.28
2018-08-04T06:31:27.394Z,39.41
2018-08-04T06:32:27.405Z,39.33
2018-08-04T06:33:27.418Z,39.52
2018-08-04T06:34:27.430Z,39.51
2018-08-04T06:35:27.495Z,39.63
2018-08-04T06:36:27.468Z,39.69
2018-08-04T06:37:27.474Z,39.79
2018-08-04T06:38:27.235Z,39.85
2018-08-04T06:39:27.257Z,39.92
2018-08-04T06:40:27.519Z,39.98
2018-08-04T06:41:27.532Z,40.13
2018-08-04T06:42:27.540Z,40.08
2018-08-04T06:43:27.555Z,40.2
2018-08-04T06:44:27.601Z,40.25
2018-08-04T06:45:27.584Z,40.27
2018-08-04T06:46:27.597Z,40.31
2018-08-04T06:47:27.625Z,40.39
2018-08-04T06:48:27.681Z,40.39
2018-08-04T06:49:27.391Z,40.43
2018-08-04T06:50:27.657Z,40.5
2018-08-04T06:51:27.674Z,40.55
2018-08-04T06:52:27.437Z,40.55
2018-08-04T06:53:27.705Z,40.53
2018-08-04T06:54:27.717Z,40.53
2018-08-04T06:55:27.736Z,40.58
2018-08-04T06:56:27.751Z,40.61
2018-08-04T06:57:27.782Z,40.64
2018-08-04T06:58:28.020Z,40.69
2018-08-04T06:59:27.796Z,40.84
2018-08-04T07:00:27.801Z,40.77
2018-08-04T07:01:27.819Z,40.83
2018-08-04T07:02:27.835Z,40.91
2018-08-04T07:03:27.599Z,40.96
2018-08-04T07:04:27.863Z,41.01
2018-08-04T07:05:27.877Z,41.13
2018-08-04T07:06:27.896Z,41.14
2018-08-04T07:07:27.660Z,41.16
2018-08-04T07:08:27.672Z,41.3
2018-08-04T07:09:27.689Z,41.35
2018-08-04T07:10:27.958Z,41.3
2018-08-04T07:11:27.971Z,41.33
2018-08-04T07:12:27.998Z,41.33
2018-08-04T07:13:28.004Z,41.3
2018-08-04T07:14:28.101Z,41.33
2018-08-04T07:15:27.787Z,41.33
2018-08-04T07:16:28.055Z,41.35
2018-08-04T07:17:28.067Z,41.32
2018-08-04T07:18:28.087Z,41.33
2018-08-04T07:19:27.592Z,41.32
2018-08-04T07:20:28.112Z,41.33
2018-08-04T07:21:28.134Z,41.26
2018-08-04T07:22:28.146Z,41.33
2018-08-04T07:23:28.158Z,41.29
2018-08-04T07:24:28.175Z,41.3
2018-08-04T07:25:28.191Z,41.32
2018-08-04T07:26:28.209Z,41.21
2018-08-04T07:27:28.224Z,41.26
2018-08-04T07:28:28.267Z,41.13
2018-08-04T07:29:28.260Z,41.17
2018-08-04T07:30:28.272Z,41.16
2018-08-04T07:31:28.047Z,41.14
2018-08-04T07:32:28.052Z,41.16
2018-08-04T07:33:28.320Z,41.18
2018-08-04T07:34:28.516Z,41.11
2018-08-04T07:35:28.350Z,41.13
2018-08-04T07:36:28.368Z,41.14
2018-08-04T07:37:28.133Z,41.06
2018-08-04T07:38:28.405Z,41.04
2018-08-04T07:39:28.418Z,41.02
2018-08-04T07:40:28.257Z,41.02
2018-08-04T07:41:28.453Z,40.89
2018-08-04T07:42:28.468Z,40.84
2018-08-04T07:43:28.483Z,40.92
2018-08-04T07:44:28.497Z,40.79
2018-08-04T07:45:28.515Z,40.73
2018-08-04T07:46:28.294Z,40.76
2018-08-04T07:47:28.668Z,40.69
2018-08-04T07:48:28.569Z,40.7
2018-08-04T07:49:28.581Z,40.72
2018-08-04T07:50:28.627Z,40.76
2018-08-04T07:51:28.612Z,40.69
2018-08-04T07:52:28.687Z,40.7
2018-08-04T07:53:28.644Z,40.64
2018-08-04T07:54:28.158Z,40.62
2018-08-04T07:55:28.677Z,40.62
2018-08-04T07:56:28.692Z,40.57
2018-08-04T07:57:28.708Z,40.6
2018-08-04T07:58:28.729Z,40.57
2018-08-04T07:59:28.614Z,40.62
2018-08-04T08:00:28.505Z,40.53
2018-08-04T08:01:28.776Z,40.61
2018-08-04T08:02:28.548Z,40.54
2018-08-04T08:03:28.810Z,40.54
2018-08-04T08:04:28.575Z,40.53
2018-08-04T08:05:28.847Z,40.51
2018-08-04T08:06:28.876Z,40.53
2018-08-04T08:07:29.127Z,40.48
2018-08-04T08:08:28.889Z,40.42
2018-08-04T08:09:28.904Z,40.39
2018-08-04T08:10:29.225Z,40.26
2018-08-04T08:11:28.705Z,40.23
2018-08-04T08:12:28.952Z,40.25
2018-08-04T08:13:28.968Z,40.22
2018-08-04T08:14:28.741Z,40.15
2018-08-04T08:15:29.011Z,40.12
2018-08-04T08:16:29.044Z,40.07
2018-08-04T08:17:29.038Z,40.15
2018-08-04T08:18:28.798Z,40.03
2018-08-04T08:19:28.926Z,40.01
2018-08-04T08:20:28.834Z,40
2018-08-04T08:21:29.102Z,40
2018-08-04T08:22:29.116Z,39.97
2018-08-04T08:23:29.175Z,39.97
2018-08-04T08:24:28.897Z,39.92
2018-08-04T08:25:29.166Z,39.92
2018-08-04T08:26:29.188Z,39.91
2018-08-04T08:27:28.947Z,39.91
2018-08-04T08:28:28.963Z,39.89
2018-08-04T08:29:29.281Z,39.97
2018-08-04T08:30:29.248Z,39.89
2018-08-04T08:31:29.597Z,39.88
2018-08-04T08:32:29.048Z,39.96
2018-08-04T08:33:29.303Z,40.03
2018-08-04T08:34:29.313Z,40.01
2018-08-04T08:35:29.337Z,39.92
2018-08-04T08:36:29.096Z,39.89
2018-08-04T08:37:29.110Z,39.81
2018-08-04T08:38:29.631Z,39.79
2018-08-04T08:39:28.892Z,39.77
2018-08-04T08:40:29.315Z,39.69
2018-08-04T08:41:29.200Z,39.63
2018-08-04T08:42:29.445Z,39.72
2018-08-04T08:43:29.465Z,39.55
2018-08-04T08:44:29.227Z,39.55
2018-08-04T08:45:29.497Z,39.47
2018-08-04T08:46:29.259Z,39.33
2018-08-04T08:47:29.529Z,39.18
2018-08-04T08:48:29.541Z,39.06
2018-08-04T08:49:29.057Z,39.04
2018-08-04T08:50:29.575Z,38.79
2018-08-04T08:51:29.590Z,38.71
2018-08-04T08:52:29.610Z,38.57
2018-08-04T08:53:30.682Z,38.34
2018-08-04T08:54:29.636Z,38.31
2018-08-04T08:55:29.667Z,38.19
2018-08-04T08:56:29.416Z,38
2018-08-04T08:57:29.175Z,37.93
2018-08-04T08:58:29.438Z,37.74
2018-08-04T08:59:29.459Z,37.6
2018-08-04T09:00:29.719Z,37.6
2018-08-04T09:01:29.644Z,37.34
2018-08-04T09:02:29.752Z,37.18
2018-08-04T09:03:29.756Z,37.1
2018-08-04T09:04:29.769Z,36.88
2018-08-04T09:05:29.781Z,36.84
2018-08-04T09:06:29.787Z,36.84
2018-08-04T09:07:29.799Z,36.69
2018-08-04T09:08:29.846Z,36.53
2018-08-04T09:09:29.570Z,36.43
2018-08-04T09:10:29.832Z,36.38
2018-08-04T09:11:29.854Z,36.25
2018-08-04T09:12:29.603Z,36.08
2018-08-04T09:13:29.862Z,36.01
2018-08-04T09:14:29.371Z,35.87
2018-08-04T09:15:29.631Z,35.74
2018-08-04T09:16:29.894Z,35.75
2018-08-04T09:17:29.905Z,35.65
2018-08-04T09:18:29.917Z,35.58
2018-08-04T09:19:29.670Z,35.52
2018-08-04T09:20:29.935Z,35.43
2018-08-04T09:21:29.942Z,35.47
2018-08-04T09:22:29.699Z,35.34
2018-08-04T09:23:29.961Z,35.25
2018-08-04T09:24:29.972Z,35.15
2018-08-04T09:25:29.979Z,35.11
2018-08-04T09:26:29.739Z,35.04
2018-08-04T09:27:29.742Z,34.92
2018-08-04T09:28:30.007Z,34.89
2018-08-04T09:29:29.761Z,34.89
2018-08-04T09:30:30.021Z,34.96
2018-08-04T09:31:29.781Z,34.81
2018-08-04T09:32:30.037Z,34.82
2018-08-04T09:33:30.045Z,34.75
2018-08-04T09:34:29.814Z,34.66
2018-08-04T09:35:29.814Z,34.62
2018-08-04T09:36:30.072Z,34.62
2018-08-04T09:37:30.079Z,34.64
2018-08-04T09:38:30.087Z,34.64
2018-08-04T09:39:30.114Z,34.62
2018-08-04T09:40:30.358Z,34.58
2018-08-04T09:41:30.113Z,34.53
2018-08-04T09:42:29.868Z,34.53
2018-08-04T09:43:30.130Z,34.52
2018-08-04T09:44:29.929Z,34.52
2018-08-04T09:45:30.146Z,34.52
2018-08-04T09:46:30.155Z,34.54
2018-08-04T09:47:29.909Z,34.47
2018-08-04T09:48:30.174Z,34.52
2018-08-04T09:49:30.182Z,34.44
2018-08-04T09:50:30.182Z,34.37
2018-08-04T09:51:30.192Z,34.4
2018-08-04T09:52:30.268Z,34.37
2018-08-04T09:53:30.208Z,34.31
2018-08-04T09:54:29.965Z,34.31
2018-08-04T09:55:30.227Z,34.24
2018-08-04T09:56:29.979Z,34.24
2018-08-04T09:57:29.990Z,34.19
2018-08-04T09:58:30.251Z,34.19
2018-08-04T09:59:30.286Z,34.15
2018-08-04T10:00:30.261Z,34.13
2018-08-04T10:01:30.274Z,34.16
2018-08-04T10:02:30.277Z,34.19
2018-08-04T10:03:30.285Z,34.19
2018-08-04T10:04:30.295Z,34.21
2018-08-04T10:05:30.317Z,34.24
2018-08-04T10:06:30.057Z,34.19
2018-08-04T10:07:30.063Z,34.17
2018-08-04T10:08:30.071Z,34.19
2018-08-04T10:09:30.093Z,34.21
2018-08-04T10:10:30.337Z,34.31
2018-08-04T10:11:30.779Z,34.42
2018-08-04T10:12:30.356Z,34.37
2018-08-04T10:13:30.361Z,34.42
2018-08-04T10:14:30.379Z,34.42
2018-08-04T10:15:30.126Z,34.37
2018-08-04T10:16:29.880Z,34.34
2018-08-04T10:17:30.391Z,34.42
2018-08-04T10:18:30.399Z,34.34
2018-08-04T10:19:30.155Z,34.44
2018-08-04T10:20:29.911Z,34.47
2018-08-04T10:21:30.431Z,34.49
2018-08-04T10:22:30.429Z,34.49
2018-08-04T10:23:30.440Z,34.54
2018-08-04T10:24:30.199Z,34.62
2018-08-04T10:25:30.453Z,34.56
2018-08-04T10:26:30.461Z,34.65
2018-08-04T10:27:30.466Z,34.66
2018-08-04T10:28:30.478Z,34.72
2018-08-04T10:29:30.232Z,34.75
2018-08-04T10:30:30.238Z,34.82
2018-08-04T10:31:30.245Z,34.87
2018-08-04T10:32:30.719Z,34.94
2018-08-04T10:33:30.261Z,34.92
2018-08-04T10:34:30.531Z,34.92
2018-08-04T10:35:30.275Z,34.97
2018-08-04T10:36:30.541Z,34.94
2018-08-04T10:37:30.549Z,34.92
2018-08-04T10:38:30.611Z,34.94
2018-08-04T10:39:30.309Z,34.92
2018-08-04T10:40:30.565Z,35
2018-08-04T10:41:30.573Z,34.92
2018-08-04T10:42:30.582Z,34.97
2018-08-04T10:43:30.338Z,34.94
2018-08-04T10:44:30.597Z,34.91
2018-08-04T10:45:30.355Z,35.04
2018-08-04T10:46:30.614Z,35.03
2018-08-04T10:47:30.369Z,35.1
2018-08-04T10:48:30.386Z,35.11
2018-08-04T10:49:30.160Z,35.09
2018-08-04T10:50:30.400Z,35.03
2018-08-04T10:51:30.660Z,35.09
2018-08-04T10:52:30.410Z,35.1
2018-08-04T10:53:30.670Z,35.1
2018-08-04T10:54:30.681Z,35.09
2018-08-04T10:55:30.694Z,35.14
2018-08-04T10:56:30.188Z,35.14
2018-08-04T10:57:30.450Z,35.16
2018-08-04T10:58:30.709Z,35.15
2018-08-04T10:59:30.462Z,35.18
2018-08-04T11:00:30.473Z,35.15
2018-08-04T11:01:30.479Z,35.1
2018-08-04T11:02:30.738Z,35.28
2018-08-04T11:03:30.751Z,35.28
2018-08-04T11:04:30.250Z,35.41
2018-08-04T11:05:30.759Z,35.47
2018-08-04T11:06:30.767Z,35.48
2018-08-04T11:07:30.777Z,35.5
2018-08-04T11:08:30.535Z,35.48
2018-08-04T11:09:30.802Z,35.5
2018-08-04T11:10:30.804Z,35.62
2018-08-04T11:11:30.809Z,35.63
2018-08-04T11:12:30.968Z,35.68
2018-08-04T11:13:30.847Z,35.71
2018-08-04T11:14:30.584Z,35.87
2018-08-04T11:15:30.842Z,35.92
2018-08-04T11:16:30.853Z,36
2018-08-04T11:17:30.857Z,36.07
2018-08-04T11:18:30.877Z,36.09
2018-08-04T11:19:30.886Z,36.03
2018-08-04T11:20:30.983Z,36.03
2018-08-04T11:21:30.897Z,36.01
2018-08-04T11:22:30.906Z,36.13
2018-08-04T11:23:30.909Z,36.22
2018-08-04T11:24:30.748Z,36.39
2018-08-04T11:25:30.927Z,36.49
2018-08-04T11:26:30.935Z,36.59
2018-08-04T11:27:30.692Z,36.78
2018-08-04T11:28:30.953Z,36.93
2018-08-04T11:29:30.980Z,37.18
2018-08-04T11:30:30.987Z,37.28
2018-08-04T11:31:30.981Z,37.39
2018-08-04T11:32:30.735Z,37.5
2018-08-04T11:33:31.000Z,37.44
2018-08-04T11:34:30.758Z,37.5
2018-08-04T11:35:30.769Z,37.57
2018-08-04T11:36:31.024Z,37.5
2018-08-04T11:37:31.035Z,37.5
2018-08-04T11:38:31.049Z,37.56
2018-08-04T11:39:30.553Z,37.55
2018-08-04T11:40:31.062Z,37.57
2018-08-04T11:41:31.071Z,37.69
2018-08-04T11:42:31.080Z,37.7
2018-08-04T11:43:31.088Z,37.94
2018-08-04T11:44:31.102Z,38.06
2018-08-04T11:45:31.288Z,38.12
2018-08-04T11:46:31.122Z,38.26
2018-08-04T11:47:31.126Z,38.4
2018-08-04T11:48:31.137Z,38.35
2018-08-04T11:49:31.152Z,38.53
2018-08-04T11:50:31.164Z,38.49
2018-08-04T11:51:31.228Z,38.52
2018-08-04T11:52:30.928Z,38.41
2018-08-04T11:53:30.682Z,38.41
2018-08-04T11:54:31.193Z,38.49
2018-08-04T11:55:31.204Z,38.54
2018-08-04T11:56:31.239Z,38.49
2018-08-04T11:57:30.970Z,38.53
2018-08-04T11:58:31.625Z,38.59
2018-08-04T11:59:30.991Z,38.71
2018-08-04T12:00:31.006Z,38.76
2018-08-04T12:01:31.261Z,38.84
2018-08-04T12:02:31.277Z,38.86
2018-08-04T12:03:31.033Z,38.86
2018-08-04T12:04:31.044Z,38.88
2018-08-04T12:05:31.566Z,38.76
2018-08-04T12:06:31.066Z,38.71
2018-08-04T12:07:31.096Z,38.72
2018-08-04T12:08:31.337Z,38.69
2018-08-04T12:09:31.378Z,38.54
2018-08-04T12:10:31.362Z,38.52
2018-08-04T12:11:31.369Z,38.35
2018-08-04T12:12:31.125Z,38.42
2018-08-04T12:13:31.389Z,38.26
2018-08-04T12:14:31.142Z,38.13
2018-08-04T12:15:31.150Z,37.76
2018-08-04T12:16:31.160Z,37.62
2018-08-04T12:17:31.179Z,37.49
2018-08-04T12:18:31.437Z,37.49
2018-08-04T12:19:31.446Z,37.36
2018-08-04T12:20:31.452Z,37.2
2018-08-04T12:21:31.495Z,37.07
2018-08-04T12:22:31.476Z,37.1
2018-08-04T12:23:31.481Z,37.05
2018-08-04T12:24:31.499Z,37.06
2018-08-04T12:25:31.369Z,37.02
2018-08-04T12:26:31.510Z,36.91
2018-08-04T12:27:31.536Z,36.87
2018-08-04T12:28:31.529Z,36.78
2018-08-04T12:29:31.537Z,36.71
2018-08-04T12:30:31.552Z,36.65
2018-08-04T12:31:31.803Z,36.49
2018-08-04T12:32:31.316Z,36.47
2018-08-04T12:33:31.576Z,36.43
2018-08-04T12:34:31.593Z,36.32
2018-08-04T12:35:31.596Z,36.34
2018-08-04T12:36:31.613Z,36.46
2018-08-04T12:37:31.848Z,36.37
2018-08-04T12:38:31.620Z,36.47
2018-08-04T12:39:31.391Z,36.43
2018-08-04T12:40:31.643Z,36.37
2018-08-04T12:41:31.655Z,36.41
2018-08-04T12:42:31.663Z,36.32
2018-08-04T12:43:31.666Z,36.23
2018-08-04T12:44:31.675Z,36.29
2018-08-04T12:45:31.555Z,36.2
2018-08-04T12:46:31.696Z,36.19
2018-08-04T12:47:31.708Z,36.05
2018-08-04T12:48:31.729Z,36.17
2018-08-04T12:49:31.721Z,36.16
2018-08-04T12:50:31.735Z,36.19
2018-08-04T12:51:31.801Z,36.32
2018-08-04T12:52:31.757Z,36.35
2018-08-04T12:53:31.521Z,36.47
2018-08-04T12:54:32.146Z,36.38
2018-08-04T12:55:31.773Z,36.43
2018-08-04T12:56:31.785Z,36.44
2018-08-04T12:57:31.800Z,36.44
2018-08-04T12:58:31.661Z,36.37
2018-08-04T12:59:31.881Z,36.41
2018-08-04T13:00:31.819Z,36.43
2018-08-04T13:01:31.575Z,36.56
2018-08-04T13:02:31.953Z,36.6
2018-08-04T13:03:31.346Z,36.57
2018-08-04T13:04:31.854Z,36.65
2018-08-04T13:05:31.917Z,36.68
2018-08-04T13:06:31.688Z,36.81
2018-08-04T13:07:31.891Z,36.83
2018-08-04T13:08:31.902Z,36.9
2018-08-04T13:09:31.901Z,37.03
2018-08-04T13:10:31.657Z,37.15
2018-08-04T13:11:31.667Z,37.2
2018-08-04T13:12:31.676Z,37.2